Time;durP1;ratioP1;P1;durP2;ratioP2;P2;SDS_P1;SDS_P2;PMS_P1;PMS_P2;Temp;Humidity;BMP_temperature;BMP_pressure;BME280_temperature;BME280_humidity;BME280_pressure;Samples;Min_cycle;Max_cycle;Signal;HPM_P1;HPM_P2
2022/10/06 00:00:20;;;;;;;1.20;1.10;;;;;;;19.14;36.58;99311.19;4959160;28;20335;-96
2022/10/06 00:02:45;;;;;;;2.08;1.40;;;;;;;19.22;36.75;99309.84;4941713;29;20039;-96
2022/10/06 00:05:11;;;;;;;1.60;1.20;;;;;;;19.24;36.67;99319.31;4951349;28;20325;-95
2022/10/06 00:07:37;;;;;;;2.33;1.30;;;;;;;19.22;36.84;99305.22;4933979;29;20515;-96
2022/10/06 00:10:03;;;;;;;2.20;1.27;;;;;;;19.21;36.57;99302.78;4941103;29;20027;-96
2022/10/06 00:12:29;;;;;;;1.52;1.30;;;;;;;19.21;36.62;99302.78;4941204;28;20086;-94
2022/10/06 00:14:55;;;;;;;4.35;1.73;;;;;;;19.20;36.78;99303.91;4940971;28;20692;-95
2022/10/06 00:17:20;;;;;;;1.77;1.38;;;;;;;19.12;36.76;99286.28;4946218;29;20058;-95
2022/10/06 00:19:46;;;;;;;1.67;1.42;;;;;;;19.18;36.97;99290.63;4939845;29;20023;-96
2022/10/06 00:22:11;;;;;;;2.08;1.40;;;;;;;19.21;36.70;99287.34;4944930;29;20489;-96
2022/10/06 00:24:43;;;;;;;3.70;1.02;;;;;;;19.10;36.83;99275.72;4946423;28;20051;-95
2022/10/06 00:27:08;;;;;;;2.33;1.30;;;;;;;19.20;36.93;99291.16;4946526;29;20110;-96
2022/10/06 00:29:34;;;;;;;2.22;1.50;;;;;;;19.23;36.80;99279.78;4950267;28;20063;-95
2022/10/06 00:31:59;;;;;;;2.05;1.50;;;;;;;19.21;36.95;99281.94;4944912;28;20098;-95
2022/10/06 00:34:25;;;;;;;2.15;1.33;;;;;;;19.22;36.95;99294.41;4950474;28;20459;-96
2022/10/06 00:36:51;;;;;;;1.80;1.30;;;;;;;19.21;36.94;99281.13;4946610;28;20481;-96
2022/10/06 00:39:18;;;;;;;2.45;1.50;;;;;;;19.19;37.02;99273.28;4945836;28;20127;-96
2022/10/06 00:41:43;;;;;;;1.55;1.25;;;;;;;19.17;37.18;99286.28;4950013;28;20027;-96
2022/10/06 00:44:09;;;;;;;1.60;1.38;;;;;;;19.16;37.00;99265.69;4951855;28;20118;-96
2022/10/06 00:46:46;;;;;;;1.80;1.33;;;;;;;19.15;37.54;99261.38;4947210;29;20491;-96
2022/10/06 00:49:16;;;;;;;1.85;1.52;;;;;;;19.17;37.12;99259.19;4943339;29;20030;-96
2022/10/06 00:51:50;;;;;;;1.75;1.50;;;;;;;19.17;37.33;99253.78;4946126;28;20030;-96
2022/10/06 00:54:16;;;;;;;2.03;1.50;;;;;;;19.13;37.40;99244.59;4947191;28;20059;-96
2022/10/06 00:56:41;;;;;;;2.05;1.70;;;;;;;19.13;37.59;99239.97;4918442;29;20069;-96
2022/10/06 00:59:12;;;;;;;1.63;1.38;;;;;;;19.14;37.49;99236.19;4950362;29;20114;-96
2022/10/06 01:01:39;;;;;;;1.63;1.50;;;;;;;19.13;37.51;99233.75;4944573;28;20032;-96
2022/10/06 01:04:08;;;;;;;3.35;1.73;;;;;;;19.17;37.49;99240.25;4935183;29;20035;-96
2022/10/06 01:06:44;;;;;;;2.47;1.55;;;;;;;19.18;37.19;99227.50;4933980;29;20042;-96
2022/10/06 01:09:10;;;;;;;2.25;1.60;;;;;;;19.17;37.69;99221.28;4952274;29;20380;-96
2022/10/06 01:11:36;;;;;;;2.28;1.52;;;;;;;19.18;37.75;99211.25;4941047;29;20091;-96
2022/10/06 01:14:02;;;;;;;1.95;1.63;;;;;;;19.16;37.72;99221.53;4929158;29;20039;-96
2022/10/06 01:16:27;;;;;;;3.95;1.70;;;;;;;19.13;37.71;99215.59;4947202;28;20054;-96
2022/10/06 01:18:53;;;;;;;1.55;1.45;;;;;;;19.18;37.78;99216.66;4935962;29;20042;-96
2022/10/06 01:21:20;;;;;;;2.63;1.40;;;;;;;19.18;37.91;99211.25;4950106;29;20053;-96
2022/10/06 01:23:47;;;;;;;1.50;1.38;;;;;;;19.11;37.87;99206.13;4950708;29;20023;-96
2022/10/06 01:26:12;;;;;;;3.88;1.70;;;;;;;19.14;38.06;99206.41;4941082;29;20062;-96
2022/10/06 01:28:38;;;;;;;2.25;1.40;;;;;;;19.12;37.80;99197.72;4951404;28;20031;-96
2022/10/06 01:31:04;;;;;;;4.60;1.80;;;;;;;19.16;37.98;99216.94;4943948;28;20055;-96
2022/10/06 01:33:29;;;;;;;1.60;1.50;;;;;;;19.17;37.75;99212.34;4942838;28;20118;-96
2022/10/06 01:35:55;;;;;;;1.90;1.42;;;;;;;19.12;37.72;99196.91;4950240;29;20035;-96
2022/10/06 01:38:21;;;;;;;3.33;1.60;;;;;;;19.08;37.78;99185.81;4932291;29;20027;-96
2022/10/06 01:40:47;;;;;;;2.75;1.52;;;;;;;19.07;37.59;99196.91;4943000;29;20036;-96
2022/10/06 01:43:12;;;;;;;2.63;1.70;;;;;;;19.18;37.62;99205.84;4946291;28;20026;-96
2022/10/06 01:45:38;;;;;;;3.60;1.58;;;;;;;19.15;37.91;99196.38;4940201;29;20107;-96
2022/10/06 01:48:04;;;;;;;1.65;1.35;;;;;;;19.16;37.90;99197.97;4951471;29;20032;-96
2022/10/06 01:50:30;;;;;;;2.00;1.58;;;;;;;19.13;37.69;99190.44;4953502;28;20225;-96
2022/10/06 01:52:56;;;;;;;2.25;1.30;;;;;;;19.13;37.72;99195.84;4941212;29;20106;-96
2022/10/06 01:55:23;;;;;;;2.67;1.60;;;;;;;19.13;38.28;99188.53;4940531;28;20077;-96
2022/10/06 01:57:51;;;;;;;2.22;1.60;;;;;;;19.16;37.86;99189.06;4942180;28;20062;-96
2022/10/06 02:00:16;;;;;;;2.00;1.50;;;;;;;19.15;37.98;99182.84;4948935;28;20031;-96
2022/10/06 02:02:42;;;;;;;2.47;1.65;;;;;;;19.12;37.94;99176.06;4943770;29;20024;-96
2022/10/06 02:05:08;;;;;;;2.80;1.67;;;;;;;19.07;38.18;99173.34;4943239;29;20058;-96
2022/10/06 02:07:37;;;;;;;4.38;2.05;;;;;;;19.12;38.13;99170.63;4945768;28;20031;-96
2022/10/06 02:10:04;;;;;;;4.07;1.90;;;;;;;19.13;38.16;99160.63;4942157;29;20027;-96
2022/10/06 02:12:30;;;;;;;2.75;1.65;;;;;;;19.15;37.77;99150.34;4948099;29;20043;-96
2022/10/06 02:14:56;;;;;;;3.00;1.80;;;;;;;19.14;38.05;99156.81;4955124;29;20031;-95
2022/10/06 02:17:25;;;;;;;2.08;1.48;;;;;;;19.15;37.72;99163.88;4952997;29;20066;-96
2022/10/06 02:19:50;;;;;;;2.70;1.60;;;;;;;19.11;38.09;99143.84;4949735;28;20047;-96
2022/10/06 02:22:16;;;;;;;2.90;1.60;;;;;;;19.14;37.85;99140.56;4949981;29;20027;-96
2022/10/06 02:24:42;;;;;;;4.07;1.83;;;;;;;19.12;37.71;99151.69;4953692;29;20031;-96
2022/10/06 02:27:07;;;;;;;2.22;1.65;;;;;;;19.15;37.79;99144.91;4957315;28;20086;-96
2022/10/06 02:29:33;;;;;;;2.75;1.73;;;;;;;19.12;38.02;99131.91;4956250;28;20032;-96
2022/10/06 02:31:58;;;;;;;2.55;1.55;;;;;;;19.04;38.17;99114.34;4946285;28;20059;-96
2022/10/06 02:34:24;;;;;;;4.55;1.80;;;;;;;19.10;38.48;99131.38;4935627;29;20027;-96
2022/10/06 02:36:50;;;;;;;2.05;1.58;;;;;;;19.12;38.38;99129.22;4946344;29;20057;-96
2022/10/06 02:39:15;;;;;;;3.60;1.70;;;;;;;19.10;38.26;99124.06;4955425;28;20100;-96
2022/10/06 02:41:41;;;;;;;2.20;1.70;;;;;;;19.13;38.39;99128.13;4955928;28;20454;-96
2022/10/06 02:44:06;;;;;;;2.10;1.40;;;;;;;19.02;38.48;99110.28;4953087;29;20043;-96
2022/10/06 02:46:32;;;;;;;4.05;1.67;;;;;;;19.12;38.30;99129.22;4941225;29;20121;-96
2022/10/06 02:48:58;;;;;;;2.67;1.40;;;;;;;19.10;38.47;99132.19;4957841;28;20028;-96
2022/10/06 02:51:23;;;;;;;2.05;1.73;;;;;;;19.13;38.16;99133.56;4942819;29;20592;-96
2022/10/06 02:53:52;;;;;;;3.17;1.58;;;;;;;19.11;38.43;99125.72;4951305;29;20034;-96
2022/10/06 02:56:22;;;;;;;4.13;1.70;;;;;;;19.15;38.14;99128.66;4948906;29;20433;-96
2022/10/06 02:58:49;;;;;;;2.35;1.40;;;;;;;19.11;38.24;99114.06;4946965;29;20032;-96
2022/10/06 03:01:33;;;;;;;1.85;1.50;;;;;;;19.08;38.34;99120.84;4951250;28;20030;-94
2022/10/06 03:03:58;;;;;;;2.67;1.48;;;;;;;19.11;38.39;99133.03;4938606;29;20487;-96
2022/10/06 03:06:26;;;;;;;3.95;1.70;;;;;;;19.12;38.03;99121.88;4946812;29;20122;-96
2022/10/06 03:08:53;;;;;;;2.28;1.50;;;;;;;19.12;38.28;99102.13;4946623;29;20031;-96
2022/10/06 03:11:19;;;;;;;2.80;1.52;;;;;;;19.12;38.21;99094.00;4942721;28;20131;-96
2022/10/06 03:13:46;;;;;;;2.15;1.38;;;;;;;19.13;38.23;99101.88;4947691;28;20035;-95
2022/10/06 03:16:33;;;;;;;2.25;1.48;;;;;;;19.11;38.28;99087.78;4948004;28;20023;-96
2022/10/06 03:18:58;;;;;;;2.25;1.23;;;;;;;19.04;38.20;99070.19;4945772;29;20023;-96
2022/10/06 03:21:26;;;;;;;1.88;1.13;;;;;;;19.11;38.29;99078.88;4948125;29;20114;-96
2022/10/06 03:23:52;;;;;;;1.38;1.25;;;;;;;19.12;38.21;99072.34;4945567;29;20568;-96
2022/10/06 03:26:28;;;;;;;2.85;1.30;;;;;;;19.10;38.44;99069.09;4937302;29;20032;-96
2022/10/06 03:28:54;;;;;;;2.75;1.50;;;;;;;19.05;38.18;99050.97;4944939;29;20089;-95
2022/10/06 03:31:20;;;;;;;2.95;1.58;;;;;;;19.10;38.39;99053.66;4943927;29;20020;-95
2022/10/06 03:33:46;;;;;;;2.55;1.50;;;;;;;18.95;38.07;99030.19;4934932;29;20053;-96
2022/10/06 03:36:16;;;;;;;1.92;1.30;;;;;;;19.11;38.09;99040.97;4943205;28;20039;-96
2022/10/06 03:38:42;;;;;;;2.08;1.25;;;;;;;19.07;38.27;99040.66;4939136;28;20114;-96
2022/10/06 03:41:12;;;;;;;2.03;1.30;;;;;;;19.09;38.48;99034.97;4944124;29;20050;-96
2022/10/06 03:43:38;;;;;;;2.50;1.20;;;;;;;19.09;38.47;99041.22;4943891;28;20978;-96
2022/10/06 03:46:04;;;;;;;2.78;1.30;;;;;;;19.07;38.47;99042.56;4942927;29;20027;-96
2022/10/06 03:48:33;;;;;;;1.92;1.13;;;;;;;19.11;38.24;99032.84;4941945;29;20027;-95
2022/10/06 03:51:10;;;;;;;1.73;1.17;;;;;;;19.09;38.28;99014.16;4906960;29;20114;-96
2022/10/06 03:53:36;;;;;;;3.10;1.33;;;;;;;19.09;38.52;99002.50;4939653;29;20079;-96
2022/10/06 03:56:07;;;;;;;1.58;1.42;;;;;;;19.10;38.38;98998.72;4958387;28;20421;-96
2022/10/06 03:58:34;;;;;;;1.70;1.00;;;;;;;19.10;38.30;99004.13;4948746;29;20531;-94
2022/10/06 04:01:01;;;;;;;3.88;1.38;;;;;;;19.11;38.06;98997.63;4959372;28;20031;-94
2022/10/06 04:03:27;;;;;;;1.98;1.30;;;;;;;19.09;38.53;98997.06;4937779;29;20038;-95
2022/10/06 04:05:56;;;;;;;1.40;1.10;;;;;;;19.07;38.47;98978.41;4946871;28;20447;-96
2022/10/06 04:08:23;;;;;;;2.65;1.13;;;;;;;19.09;38.36;98980.84;4949029;28;20300;-96
2022/10/06 04:10:48;;;;;;;2.30;1.00;;;;;;;18.98;38.44;98958.41;4939531;29;20063;-96
2022/10/06 04:13:17;;;;;;;2.15;1.20;;;;;;;19.09;38.41;98978.13;4945523;28;20386;-96
2022/10/06 04:15:43;;;;;;;2.05;1.23;;;;;;;19.10;38.60;98974.34;4943886;29;20063;-96
2022/10/06 04:18:10;;;;;;;2.47;1.42;;;;;;;18.98;38.67;98963.03;4945854;28;20111;-96
2022/10/06 04:20:35;;;;;;;3.33;1.30;;;;;;;19.00;38.51;98960.84;4950003;29;20023;-96
2022/10/06 04:23:01;;;;;;;3.03;1.30;;;;;;;19.10;38.36;98958.09;4946205;29;20026;-94
2022/10/06 04:25:27;;;;;;;2.45;1.40;;;;;;;19.08;38.98;98960.28;4939805;29;20106;-94
2022/10/06 04:27:52;;;;;;;2.53;1.20;;;;;;;19.08;38.69;98950.25;4937402;29;20039;-94
2022/10/06 04:30:18;;;;;;;2.22;1.13;;;;;;;19.08;38.46;98946.72;4941478;29;20031;-95
2022/10/06 04:32:44;;;;;;;3.08;1.50;;;;;;;19.08;38.85;98952.94;4939472;29;20113;-95
2022/10/06 04:35:10;;;;;;;2.10;1.20;;;;;;;19.07;38.56;98943.19;4948729;29;20020;-95
2022/10/06 04:37:36;;;;;;;1.60;1.15;;;;;;;19.07;38.78;98950.53;4938933;28;20024;-94
2022/10/06 04:40:02;;;;;;;1.98;1.27;;;;;;;18.97;39.03;98934.31;4950516;29;20046;-94
2022/10/06 04:42:28;;;;;;;3.03;1.30;;;;;;;19.06;38.92;98948.91;4928417;29;20035;-94
2022/10/06 04:44:54;;;;;;;2.67;1.10;;;;;;;19.03;39.03;98944.06;4946160;29;20454;-94
2022/10/06 04:47:20;;;;;;;1.65;1.20;;;;;;;19.07;38.65;98945.09;4943433;28;20506;-94
2022/10/06 04:49:45;;;;;;;2.13;1.40;;;;;;;19.05;38.78;98939.97;4947325;28;20036;-95
2022/10/06 04:52:11;;;;;;;1.73;1.30;;;;;;;19.05;38.79;98939.97;4942197;28;20111;-94
2022/10/06 04:54:37;;;;;;;2.63;1.30;;;;;;;18.93;38.60;98907.00;4936737;28;20026;-95
2022/10/06 04:57:02;;;;;;;1.92;1.25;;;;;;;19.06;38.65;98900.97;4947565;29;20031;-95
2022/10/06 05:02:12;;;;;;;3.28;1.30;;;;;;;19.06;38.83;98905.59;4942323;29;20034;-94
2022/10/06 05:04:38;;;;;;;2.03;1.20;;;;;;;19.06;38.78;98903.69;4944110;28;20448;-95
2022/10/06 05:07:04;;;;;;;1.38;1.13;;;;;;;19.06;38.78;98911.00;4962111;28;20034;-95
2022/10/06 05:09:30;;;;;;;1.63;1.30;;;;;;;19.02;38.79;98893.69;4919586;29;20047;-94
2022/10/06 05:11:56;;;;;;;2.42;1.38;;;;;;;19.07;38.85;98899.06;4931137;29;20052;-94
2022/10/06 05:14:21;;;;;;;1.40;1.20;;;;;;;19.06;38.90;98890.16;4946003;29;20500;-93
2022/10/06 05:16:47;;;;;;;1.45;1.20;;;;;;;19.06;38.79;98892.06;4948561;28;20039;-94
2022/10/06 05:19:13;;;;;;;2.50;1.20;;;;;;;19.06;38.56;98883.94;4944340;29;20053;-94
2022/10/06 05:21:39;;;;;;;1.83;1.25;;;;;;;19.06;38.87;98886.66;4948177;28;20114;-94
2022/10/06 05:24:04;;;;;;;2.33;1.13;;;;;;;19.07;38.86;98893.66;4946046;29;20126;-94
2022/10/06 05:26:31;;;;;;;1.55;1.23;;;;;;;19.05;38.77;98883.09;4951164;28;20631;-94
2022/10/06 05:28:57;;;;;;;1.55;1.20;;;;;;;19.01;38.71;98865.81;4944571;29;20063;-94
2022/10/06 05:31:25;;;;;;;1.67;1.10;;;;;;;19.05;38.73;98876.88;4951913;28;20170;-93
2022/10/06 05:33:51;;;;;;;1.70;1.08;;;;;;;19.05;38.83;98866.06;4942080;28;20031;-94
2022/10/06 05:36:18;;;;;;;1.52;1.10;;;;;;;19.05;38.64;98866.06;4941391;29;20054;-94
2022/10/06 05:38:44;;;;;;;2.03;1.08;;;;;;;19.03;39.11;98863.63;4942765;28;20118;-94
2022/10/06 05:41:14;;;;;;;1.65;1.10;;;;;;;19.06;38.76;98870.41;4947349;29;20035;-92
2022/10/06 05:43:40;;;;;;;2.72;1.00;;;;;;;19.06;38.90;98873.09;4939781;29;20028;-93
2022/10/06 05:46:07;;;;;;;2.17;1.05;;;;;;;19.04;38.92;98876.09;4938455;28;20035;-93
2022/10/06 05:48:33;;;;;;;2.20;0.98;;;;;;;19.05;38.88;98874.97;4939225;29;20078;-94
2022/10/06 05:51:06;;;;;;;1.27;1.00;;;;;;;19.05;38.84;98871.47;4933158;29;20469;-93
2022/10/06 05:53:33;;;;;;;1.38;0.98;;;;;;;19.02;38.90;98855.78;4945469;29;20041;-93
2022/10/06 05:56:05;;;;;;;2.33;1.10;;;;;;;19.02;39.17;98862.00;4947757;29;20026;-93
2022/10/06 05:58:31;;;;;;;0.98;0.70;;;;;;;19.04;38.94;98859.84;4932822;29;20143;-93
2022/10/06 06:01:10;;;;;;;1.20;0.90;;;;;;;19.04;38.86;98864.44;4930953;29;20031;-93
2022/10/06 06:03:36;;;;;;;1.15;0.98;;;;;;;19.02;39.14;98867.41;4949614;29;20396;-94
2022/10/06 06:06:02;;;;;;;2.00;1.10;;;;;;;19.03;38.82;98870.94;4942272;28;20030;-94
2022/10/06 06:08:28;;;;;;;1.58;1.02;;;;;;;19.01;38.74;98865.03;4936314;29;20062;-93
2022/10/06 06:10:54;;;;;;;1.42;0.98;;;;;;;18.94;38.82;98860.72;4909891;29;20699;-95
2022/10/06 06:13:20;;;;;;;1.60;0.98;;;;;;;19.04;38.63;98870.69;4936020;29;20106;-94
2022/10/06 06:16:03;;;;;;;1.60;1.00;;;;;;;19.02;39.08;98872.84;4941379;29;20042;-93
2022/10/06 06:18:32;;;;;;;1.13;0.90;;;;;;;19.06;38.85;98867.69;4939138;29;20111;-93
2022/10/06 06:20:59;;;;;;;1.00;0.80;;;;;;;19.04;38.81;98864.44;4934490;29;20152;-94
2022/10/06 06:23:36;;;;;;;0.85;0.85;;;;;;;19.03;38.75;98866.34;4946864;29;20503;-93
2022/10/06 06:26:03;;;;;;;1.33;1.05;;;;;;;19.02;39.05;98855.78;4947275;29;20038;-94
2022/10/06 06:28:29;;;;;;;0.90;0.80;;;;;;;19.02;39.07;98853.09;4938517;29;20047;-93
2022/10/06 06:31:13;;;;;;;1.25;1.05;;;;;;;19.04;38.66;98848.19;4945350;29;20555;-93
2022/10/06 06:33:39;;;;;;;1.15;0.88;;;;;;;19.00;38.94;98856.06;4947042;28;20034;-93
2022/10/06 06:36:16;;;;;;;0.80;0.77;;;;;;;19.03;39.13;98846.59;4946299;29;20031;-94
2022/10/06 06:38:42;;;;;;;1.10;0.80;;;;;;;19.03;38.95;98841.19;4947073;29;20489;-94
2022/10/06 06:41:15;;;;;;;1.15;0.90;;;;;;;19.02;39.04;98839.53;4943342;28;20031;-94
2022/10/06 06:43:41;;;;;;;1.48;0.95;;;;;;;19.02;38.99;98834.13;4935439;29;20024;-94
2022/10/06 06:46:07;;;;;;;2.75;0.90;;;;;;;19.04;38.98;98845.47;4945928;28;20556;-93
2022/10/06 06:48:34;;;;;;;1.10;1.00;;;;;;;19.02;39.02;98832.22;4939098;29;20103;-91
2022/10/06 06:51:00;;;;;;;1.52;0.90;;;;;;;19.00;39.15;98834.41;4949776;28;20087;-93
2022/10/06 06:53:26;;;;;;;1.35;1.00;;;;;;;19.01;38.88;98836.03;4941267;29;20034;-92
2022/10/06 06:55:51;;;;;;;1.08;0.85;;;;;;;19.00;38.74;98845.25;4943725;29;20016;-92
2022/10/06 06:58:20;;;;;;;1.25;1.00;;;;;;;18.93;38.64;98826.59;4945002;29;20043;-93
2022/10/06 07:00:47;;;;;;;2.08;1.00;;;;;;;19.03;38.63;98843.88;4929267;29;20024;-93
2022/10/06 07:03:17;;;;;;;0.80;0.80;;;;;;;19.02;39.08;98836.84;4949662;28;20031;-93
2022/10/06 07:05:45;;;;;;;2.08;1.10;;;;;;;19.02;38.75;98839.53;4948262;29;20054;-93
2022/10/06 07:08:14;;;;;;;1.58;1.08;;;;;;;19.00;39.05;98837.13;4945261;28;20066;-93
2022/10/06 07:10:43;;;;;;;1.42;0.85;;;;;;;19.01;38.90;98832.53;4939908;28;20110;-93
2022/10/06 07:13:12;;;;;;;0.95;0.90;;;;;;;19.02;39.03;98826.00;4945896;28;20069;-92
2022/10/06 07:26:39;;;;;;;1.35;0.90;;;;;;;19.02;39.04;98812.47;4951205;29;20054;-94
2022/10/06 07:29:04;;;;;;;1.58;1.10;;;;;;;19.01;38.97;98800.03;4936916;28;20039;-92
2022/10/06 07:31:32;;;;;;;2.05;0.70;;;;;;;19.00;39.11;98799.22;4938280;29;20028;-94
2022/10/06 07:34:02;;;;;;;0.85;0.70;;;;;;;19.00;38.90;98799.22;4934168;29;20024;-94
2022/10/06 07:36:31;;;;;;;1.27;0.80;;;;;;;19.00;39.16;98793.81;4944422;29;20051;-93
2022/10/06 07:38:57;;;;;;;1.52;0.90;;;;;;;19.00;38.98;98795.72;4952144;29;20500;-94
2022/10/06 07:41:23;;;;;;;1.67;0.90;;;;;;;19.01;39.00;98789.22;4949587;29;20093;-94
2022/10/06 07:43:49;;;;;;;1.00;0.90;;;;;;;18.98;38.96;98778.94;4936615;29;20036;-94
2022/10/06 07:46:14;;;;;;;2.90;1.30;;;;;;;18.99;39.41;98784.09;4934632;29;20035;-94
2022/10/06 07:48:40;;;;;;;1.08;0.98;;;;;;;19.00;38.83;98771.34;4949798;29;20054;-94
2022/10/06 07:51:16;;;;;;;0.77;0.75;;;;;;;18.99;39.33;98759.72;4939810;28;20054;-93
2022/10/06 07:53:45;;;;;;;1.85;1.00;;;;;;;19.01;39.23;98759.44;4949197;28;20141;-93
2022/10/06 07:56:14;;;;;;;1.90;0.80;;;;;;;19.01;39.25;98765.66;4945876;29;20027;-94
2022/10/06 07:58:40;;;;;;;1.58;1.15;;;;;;;19.01;39.25;98762.94;4938699;29;20087;-93
2022/10/06 08:01:10;;;;;;;3.03;0.90;;;;;;;18.99;39.14;98753.47;4956898;28;20031;-93
2022/10/06 08:03:36;;;;;;;1.88;0.88;;;;;;;19.01;39.02;98756.72;4947945;29;20039;-93
2022/10/06 08:06:02;;;;;;;1.77;1.02;;;;;;;19.00;39.40;98749.69;4941660;29;20031;-93
2022/10/06 08:08:31;;;;;;;0.85;0.82;;;;;;;19.00;39.30;98739.66;4940004;29;20027;-94
2022/10/06 08:10:58;;;;;;;1.98;0.90;;;;;;;18.97;39.24;98740.22;4948834;28;20525;-93
2022/10/06 08:13:24;;;;;;;1.00;0.90;;;;;;;18.94;39.51;98724.56;4941317;29;20114;-93
2022/10/06 08:15:50;;;;;;;1.52;1.10;;;;;;;18.99;39.48;98723.69;4935820;29;20504;-93
2022/10/06 08:18:19;;;;;;;1.42;0.90;;;;;;;18.99;39.54;98729.09;4938834;29;20028;-94
2022/10/06 08:20:44;;;;;;;1.83;0.95;;;;;;;18.95;39.59;98710.75;4931338;29;20040;-93
2022/10/06 08:23:11;;;;;;;0.88;0.80;;;;;;;18.97;39.17;98718.56;4933583;29;20510;-93
2022/10/06 08:25:42;;;;;;;0.90;0.85;;;;;;;18.99;39.45;98699.31;4929999;29;20031;-93
2022/10/06 08:28:09;;;;;;;2.40;1.00;;;;;;;19.01;39.46;98702.59;4946198;28;20122;-94
2022/10/06 08:30:34;;;;;;;1.38;0.90;;;;;;;19.00;39.56;98706.38;4941123;29;20074;-93
2022/10/06 08:33:00;;;;;;;1.40;0.90;;;;;;;19.00;39.77;98711.78;4940512;29;20055;-93
2022/10/06 08:35:26;;;;;;;0.80;0.80;;;;;;;19.00;39.48;98703.66;4946487;29;20027;-93
2022/10/06 08:37:54;;;;;;;1.38;1.00;;;;;;;18.99;39.71;98707.44;4938085;29;20059;-93
2022/10/06 08:40:20;;;;;;;1.10;0.90;;;;;;;19.02;39.28;98710.41;4941612;29;20020;-93
2022/10/06 08:42:49;;;;;;;1.40;1.10;;;;;;;19.01;39.67;98702.59;4941401;29;20027;-93
2022/10/06 08:45:22;;;;;;;0.90;0.90;;;;;;;18.94;39.93;98701.00;4915922;29;20428;-94
2022/10/06 08:48:06;;;;;;;1.52;1.00;;;;;;;18.99;39.77;98699.31;4909872;29;20038;-93
2022/10/06 08:50:37;;;;;;;1.27;0.98;;;;;;;18.99;39.70;98691.22;4949164;28;20480;-94
2022/10/06 08:53:12;;;;;;;2.10;0.90;;;;;;;19.00;39.52;98690.94;4950049;29;20041;-93
2022/10/06 08:55:46;;;;;;;2.55;1.00;;;;;;;18.98;39.60;98690.41;4942738;28;20043;-94
2022/10/06 08:58:27;;;;;;;1.60;0.90;;;;;;;18.99;39.70;98680.38;4919571;29;20027;-94
2022/10/06 09:00:55;;;;;;;0.80;0.77;;;;;;;18.98;39.56;98681.50;4941313;29;20039;-94
2022/10/06 09:03:23;;;;;;;1.33;0.70;;;;;;;18.92;39.42;98667.16;4946955;29;20391;-94
2022/10/06 09:05:52;;;;;;;0.90;0.75;;;;;;;18.99;39.65;98674.97;4941133;29;20028;-93
2022/10/06 09:08:42;;;;;;;0.80;0.70;;;;;;;19.01;39.60;98659.28;4947650;28;20034;-93
2022/10/06 09:11:13;;;;;;;1.17;0.70;;;;;;;19.00;39.82;98671.19;4946709;29;20062;-94
2022/10/06 09:13:43;;;;;;;0.70;0.65;;;;;;;18.91;39.74;98655.53;4942410;28;20028;-93
2022/10/06 09:16:10;;;;;;;1.67;0.80;;;;;;;18.99;39.80;98661.44;4941922;29;20495;-94
2022/10/06 09:19:15;;;;;;;1.20;0.85;;;;;;;18.98;39.87;98655.22;4940601;29;20027;-94
2022/10/06 09:21:49;;;;;;;0.80;0.73;;;;;;;18.99;39.75;98658.72;4938050;29;20392;-94
2022/10/06 09:24:37;;;;;;;1.15;0.80;;;;;;;18.91;39.72;98639.31;4922650;29;20455;-94
2022/10/06 09:27:17;;;;;;;0.73;0.73;;;;;;;19.00;39.63;98652.22;4937121;29;20031;-94
2022/10/06 09:29:43;;;;;;;2.22;0.75;;;;;;;18.99;39.72;98651.44;4945152;29;20027;-94
2022/10/06 09:32:09;;;;;;;1.10;0.77;;;;;;;18.97;39.72;98647.38;4933758;28;20396;-94
2022/10/06 09:34:55;;;;;;;1.25;0.80;;;;;;;18.95;39.80;98640.38;4943802;28;20019;-94
2022/10/06 09:37:21;;;;;;;1.38;0.82;;;;;;;19.00;39.76;98635.97;4934290;29;20121;-94
2022/10/06 09:39:49;;;;;;;1.35;0.93;;;;;;;18.98;39.75;98638.97;4948089;29;20473;-94
2022/10/06 09:42:25;;;;;;;0.90;0.60;;;;;;;18.98;39.64;98625.44;4944806;28;20027;-95
2022/10/06 09:45:10;;;;;;;0.82;0.70;;;;;;;19.00;39.74;98625.16;4945954;29;20122;-94
2022/10/06 09:47:41;;;;;;;0.88;0.80;;;;;;;18.98;39.80;98621.94;4941549;29;20047;-93
2022/10/06 09:50:20;;;;;;;1.17;0.80;;;;;;;19.00;39.70;98617.03;4938481;29;20106;-95
2022/10/06 09:53:02;;;;;;;1.02;0.70;;;;;;;19.01;39.64;98615.97;4944843;29;20027;-93
2022/10/06 09:55:33;;;;;;;0.93;0.82;;;;;;;19.00;39.79;98617.03;4942987;29;20051;-93
2022/10/06 09:57:59;;;;;;;0.60;0.60;;;;;;;18.99;40.05;98607.28;4940358;28;20166;-94
2022/10/06 10:00:31;;;;;;;0.90;0.63;;;;;;;18.99;39.90;98607.28;4933014;29;20027;-93
2022/10/06 10:02:58;;;;;;;0.80;0.60;;;;;;;19.01;39.93;98608.63;4935645;28;20082;-93
2022/10/06 10:05:24;;;;;;;0.50;0.50;;;;;;;18.96;40.16;98597.84;4944841;28;20031;-94
2022/10/06 10:08:12;;;;;;;1.05;0.80;;;;;;;18.97;40.02;98593.25;4940977;29;20037;-94
2022/10/06 10:10:38;;;;;;;0.70;0.55;;;;;;;18.99;40.11;98608.13;4944728;29;20050;-93
2022/10/06 10:13:15;;;;;;;1.10;0.70;;;;;;;19.00;40.23;98608.91;4943762;29;20496;-93
2022/10/06 10:16:00;;;;;;;0.75;0.65;;;;;;;18.94;40.31;98595.44;4927797;29;20422;-95
2022/10/06 10:18:29;;;;;;;1.83;0.50;;;;;;;18.96;40.54;98622.22;4940041;29;20027;-94
2022/10/06 10:21:06;;;;;;;0.50;0.50;;;;;;;18.99;40.27;98618.13;4947776;29;20369;-94
2022/10/06 10:23:37;;;;;;;0.43;0.43;;;;;;;18.99;40.12;98623.53;4939012;29;20066;-94
2022/10/06 10:26:03;;;;;;;0.80;0.60;;;;;;;18.98;40.24;98614.63;4944000;28;20217;-94
2022/10/06 10:28:34;;;;;;;0.90;0.70;;;;;;;18.99;40.21;98602.69;4951559;29;20126;-94
2022/10/06 10:31:24;;;;;;;0.52;0.50;;;;;;;18.98;40.42;98606.50;4947957;29;20055;-95
2022/10/06 10:33:54;;;;;;;0.70;0.55;;;;;;;18.98;40.58;98600.28;4939823;29;20032;-95
2022/10/06 10:36:49;;;;;;;0.50;0.50;;;;;;;18.97;40.35;98612.19;4943275;29;20531;-95
2022/10/06 10:39:26;;;;;;;1.80;0.60;;;;;;;18.99;40.30;98613.53;4943521;29;20031;-95
2022/10/06 10:41:51;;;;;;;0.45;0.45;;;;;;;19.01;40.18;98615.97;4946827;28;20023;-94
2022/10/06 10:44:40;;;;;;;0.52;0.52;;;;;;;18.99;39.85;98605.41;4952587;28;20089;-94
2022/10/06 10:47:12;;;;;;;0.70;0.68;;;;;;;18.98;39.84;98611.91;4949368;28;20046;-94
2022/10/06 10:49:37;;;;;;;0.98;0.60;;;;;;;18.97;39.93;98593.25;4942919;28;20416;-94
2022/10/06 10:52:06;;;;;;;0.60;0.60;;;;;;;19.02;39.77;98604.00;4937420;29;20035;-94
2022/10/06 10:55:16;;;;;;;0.68;0.50;;;;;;;19.00;40.01;98600.78;4945164;28;20130;-95
2022/10/06 10:57:45;;;;;;;0.63;0.50;;;;;;;19.01;39.92;98605.13;4965916;28;20023;-95
2022/10/06 11:00:20;;;;;;;0.90;0.50;;;;;;;19.02;39.80;98595.91;4951853;28;20027;-94
2022/10/06 11:02:46;;;;;;;0.82;0.50;;;;;;;18.95;39.87;98591.66;4935533;29;20114;-96
2022/10/06 11:05:33;;;;;;;0.50;0.43;;;;;;;19.01;40.20;98603.22;4939446;28;20119;-95
2022/10/06 11:08:15;;;;;;;0.60;0.60;;;;;;;19.03;40.10;98600.22;4941394;29;20120;-95
2022/10/06 11:10:44;;;;;;;0.40;0.40;;;;;;;19.01;39.96;98592.38;4939371;28;20475;-95
2022/10/06 11:13:32;;;;;;;0.40;0.40;;;;;;;19.03;39.96;98598.31;4941699;28;20023;-95
2022/10/06 11:15:58;;;;;;;5.78;0.50;;;;;;;19.03;40.03;98594.81;4942307;29;20123;-96
2022/10/06 11:18:42;;;;;;;0.50;0.50;;;;;;;19.05;39.86;98608.88;4942715;29;20024;-94
2022/10/06 11:21:14;;;;;;;0.50;0.50;;;;;;;18.98;39.91;98600.28;4954851;28;20425;-95
2022/10/06 11:23:48;;;;;;;0.50;0.50;;;;;;;19.03;39.80;98602.94;4945867;29;20032;-94
2022/10/06 11:26:35;;;;;;;0.45;0.40;;;;;;;19.05;40.04;98608.88;4947660;29;20118;-95
2022/10/06 11:29:39;;;;;;;0.55;0.43;;;;;;;19.04;40.03;98620.78;4933187;29;20495;-95
2022/10/06 11:32:23;;;;;;;0.50;0.50;;;;;;;19.05;39.91;98627.81;4943045;29;20067;-95
2022/10/06 11:34:48;;;;;;;0.55;0.50;;;;;;;19.06;39.72;98648.41;4942647;29;20066;-95
2022/10/06 11:37:43;;;;;;;0.90;0.50;;;;;;;19.05;39.68;98635.94;4945498;28;20035;-94
2022/10/06 11:40:28;;;;;;;0.73;0.50;;;;;;;19.06;39.89;98651.09;4937660;29;20039;-94
2022/10/06 11:43:01;;;;;;;0.43;0.43;;;;;;;19.06;39.70;98668.13;4943883;28;20031;-94
2022/10/06 11:45:47;;;;;;;2.83;0.40;;;;;;;19.05;39.79;98671.13;4941995;29;20042;-94
2022/10/06 11:48:27;;;;;;;0.47;0.47;;;;;;;19.04;39.86;98681.16;4941084;29;20031;-93
2022/10/06 11:50:54;;;;;;;0.70;0.50;;;;;;;19.08;39.83;98686.81;4939569;29;20118;-95
2022/10/06 11:53:33;;;;;;;0.40;0.40;;;;;;;19.06;39.75;98689.81;4950069;29;20023;-95
2022/10/06 11:56:17;;;;;;;0.35;0.35;;;;;;;19.08;39.73;98701.16;4942247;28;20058;-94
2022/10/06 11:58:54;;;;;;;0.52;0.50;;;;;;;19.08;39.50;98711.19;4945881;28;20063;-94